createdAt,value
2023-01-21T00:01:12.545Z,-0.53
2023-01-21T00:03:39.935Z,-0.65
2023-01-21T00:06:08.096Z,-0.68
2023-01-21T00:08:35.575Z,-0.63
2023-01-21T00:11:14.439Z,-0.83
2023-01-21T00:13:43.159Z,-0.93
2023-01-21T00:16:12.045Z,-0.75
2023-01-21T00:18:39.346Z,-0.57
2023-01-21T00:21:06.968Z,-0.60
2023-01-21T00:23:34.251Z,-0.59
2023-01-21T00:26:04.834Z,-0.36
2023-01-21T00:28:34.279Z,-0.61
2023-01-21T00:31:05.284Z,-0.75
2023-01-21T00:33:33.560Z,-0.64
2023-01-21T00:36:06.193Z,-0.69
2023-01-21T00:38:34.624Z,-0.81
2023-01-21T00:41:04.752Z,-0.71
2023-01-21T00:43:32.667Z,-0.71
2023-01-21T00:46:00.572Z,-0.88
2023-01-21T00:48:28.725Z,-0.83
2023-01-21T00:50:59.139Z,-0.74
2023-01-21T00:53:32.483Z,-0.75
2023-01-21T00:56:07.629Z,-0.75
2023-01-21T00:58:35.460Z,-0.73
2023-01-21T01:01:09.011Z,-0.63
2023-01-21T01:03:37.726Z,-0.55
2023-01-21T01:06:12.091Z,-0.41
2023-01-21T01:08:39.512Z,-0.17
2023-01-21T01:11:07.389Z,-0.15
2023-01-21T01:13:36.021Z,-0.24
2023-01-21T01:16:04.277Z,-0.10
2023-01-21T01:18:33.961Z,-0.03
2023-01-21T01:21:02.431Z,0.02
2023-01-21T01:23:30.034Z,-0.09
2023-01-21T01:26:03.020Z,0.09
2023-01-21T01:28:31.188Z,0.10
2023-01-21T01:30:59.340Z,0.17
2023-01-21T01:33:27.682Z,0.19
2023-01-21T01:35:55.399Z,0.38
2023-01-21T01:38:23.156Z,0.41
2023-01-21T01:40:53.318Z,0.28
2023-01-21T01:43:49.373Z,0.28
2023-01-21T01:46:17.109Z,0.34
2023-01-21T01:48:49.605Z,0.47
2023-01-21T01:51:22.901Z,0.63
2023-01-21T01:53:51.903Z,0.64
2023-01-21T01:56:19.807Z,0.80
2023-01-21T01:58:48.481Z,0.93
2023-01-21T02:01:16.147Z,1.01
2023-01-21T02:03:50.862Z,1.22
2023-01-21T02:06:19.333Z,1.25
2023-01-21T02:08:47.768Z,1.33
2023-01-21T02:11:18.069Z,1.33
2023-01-21T02:13:58.060Z,1.39
2023-01-21T02:16:53.136Z,1.42
2023-01-21T02:19:35.560Z,1.52
2023-01-21T02:22:16.372Z,1.53
2023-01-21T02:24:49.638Z,1.57
2023-01-21T02:27:41.975Z,1.49
2023-01-21T02:30:27.335Z,1.67
2023-01-21T02:33:39.117Z,1.61
2023-01-21T02:36:15.119Z,1.63
2023-01-21T02:39:20.125Z,1.58
2023-01-21T02:42:00.486Z,1.61
2023-01-21T02:44:37.647Z,1.67
2023-01-21T02:47:22.866Z,1.62
2023-01-21T02:50:01.005Z,1.68
2023-01-21T02:52:28.409Z,1.68
2023-01-21T02:54:58.175Z,1.72
2023-01-21T02:57:43.208Z,1.79
2023-01-21T03:00:24.985Z,1.76
2023-01-21T03:03:04.354Z,1.76
2023-01-21T03:06:00.907Z,1.80
2023-01-21T03:08:40.936Z,1.69
2023-01-21T03:11:08.473Z,1.60
2023-01-21T03:14:02.610Z,1.70
2023-01-21T03:16:54.951Z,1.68
2023-01-21T03:19:42.420Z,1.68
2023-01-21T03:22:18.938Z,1.71
2023-01-21T03:24:51.182Z,1.73
2023-01-21T03:27:22.714Z,1.66
2023-01-21T03:29:56.909Z,1.83
2023-01-21T03:32:26.703Z,1.82
2023-01-21T03:34:56.064Z,1.74
2023-01-21T03:37:46.565Z,1.80
2023-01-21T03:40:36.255Z,1.83
2023-01-21T03:43:04.427Z,1.84
2023-01-21T03:45:45.632Z,1.87
2023-01-21T03:48:31.593Z,1.88
2023-01-21T03:51:15.884Z,1.73
2023-01-21T03:53:43.993Z,1.77
2023-01-21T03:56:11.386Z,1.83
2023-01-21T03:58:38.916Z,1.71
2023-01-21T04:01:06.241Z,1.76
2023-01-21T04:03:33.838Z,1.74
2023-01-21T04:06:01.052Z,1.70
2023-01-21T04:08:28.630Z,1.84
2023-01-21T04:10:55.846Z,1.82
2023-01-21T04:13:23.373Z,1.83
2023-01-21T04:15:50.793Z,1.70
2023-01-21T04:18:18.598Z,1.75
2023-01-21T04:20:46.799Z,1.79
2023-01-21T04:23:14.456Z,1.81
2023-01-21T04:25:41.732Z,1.85
2023-01-21T04:28:09.262Z,1.80
2023-01-21T04:30:36.598Z,1.75
2023-01-21T04:33:04.250Z,1.77
2023-01-21T04:35:31.529Z,1.75
2023-01-21T04:37:59.035Z,1.69
2023-01-21T04:40:26.290Z,1.77
2023-01-21T04:42:53.931Z,1.77
2023-01-21T04:45:21.661Z,1.80
2023-01-21T04:47:49.276Z,1.85
2023-01-21T04:50:17.064Z,1.74
2023-01-21T04:52:44.955Z,1.82
2023-01-21T04:55:12.328Z,1.69
2023-01-21T04:57:39.973Z,1.79
2023-01-21T05:00:08.670Z,1.75
2023-01-21T05:02:36.330Z,1.82
2023-01-21T05:05:04.035Z,1.78
2023-01-21T05:07:31.572Z,1.85
2023-01-21T05:09:58.887Z,1.70
2023-01-21T05:12:26.702Z,1.74
2023-01-21T05:14:54.848Z,1.67
2023-01-21T05:17:22.412Z,1.77
2023-01-21T05:19:52.888Z,1.75
2023-01-21T05:22:20.571Z,1.71
2023-01-21T05:24:48.379Z,1.66
2023-01-21T05:27:16.131Z,1.75
2023-01-21T05:29:43.427Z,1.69
2023-01-21T05:32:11.042Z,1.75
2023-01-21T05:34:38.271Z,1.70
2023-01-21T05:37:05.952Z,1.68
2023-01-21T05:39:33.226Z,1.74
2023-01-21T05:42:00.827Z,1.79
2023-01-21T05:44:28.238Z,1.70
2023-01-21T05:46:55.788Z,1.79
2023-01-21T05:49:23.014Z,1.78
2023-01-21T05:51:50.634Z,1.76
2023-01-21T05:54:17.898Z,1.78
2023-01-21T05:56:45.419Z,1.82
2023-01-21T05:59:12.782Z,1.83
2023-01-21T06:01:40.349Z,1.69
2023-01-21T06:04:07.594Z,1.73
2023-01-21T06:06:35.237Z,1.70
2023-01-21T06:09:02.509Z,1.73
2023-01-21T06:11:30.072Z,1.75
2023-01-21T06:13:57.331Z,1.75
2023-01-21T06:16:24.854Z,1.82
2023-01-21T06:18:52.139Z,1.74
2023-01-21T06:21:19.691Z,1.81
2023-01-21T06:23:46.900Z,1.80
2023-01-21T06:26:14.571Z,1.77
2023-01-21T06:28:41.827Z,1.81
2023-01-21T06:31:09.410Z,1.85
2023-01-21T06:33:36.742Z,1.81
2023-01-21T06:36:04.529Z,1.84
2023-01-21T06:38:35.978Z,1.81
2023-01-21T06:41:04.550Z,1.77
2023-01-21T06:43:31.839Z,1.74
2023-01-21T06:45:59.450Z,1.73
2023-01-21T06:48:26.713Z,1.80
2023-01-21T06:50:54.315Z,1.76
2023-01-21T06:53:21.677Z,1.76
2023-01-21T06:55:49.233Z,1.81
2023-01-21T06:58:16.529Z,1.65
2023-01-21T07:00:44.592Z,1.76
2023-01-21T07:03:11.864Z,1.77
2023-01-21T07:05:39.457Z,1.76
2023-01-21T07:08:06.839Z,1.64
2023-01-21T07:10:34.393Z,1.60
2023-01-21T07:13:01.684Z,1.71
2023-01-21T07:15:31.056Z,1.73
2023-01-21T07:17:58.336Z,1.71
2023-01-21T07:20:26.117Z,1.73
2023-01-21T07:22:53.720Z,1.68
2023-01-21T07:25:21.261Z,1.70
2023-01-21T07:27:48.667Z,1.72
2023-01-21T07:30:19.248Z,1.71
2023-01-21T07:32:47.549Z,1.78
2023-01-21T07:35:15.779Z,1.74
2023-01-21T07:37:43.372Z,1.73
2023-01-21T07:40:11.425Z,1.78
2023-01-21T07:42:38.732Z,1.80
2023-01-21T07:45:06.857Z,1.76
2023-01-21T07:47:34.267Z,1.80
2023-01-21T07:50:05.103Z,1.79
2023-01-21T07:52:32.784Z,1.77
2023-01-21T07:55:01.741Z,1.80
2023-01-21T07:57:29.252Z,1.80
2023-01-21T07:59:56.779Z,1.71
2023-01-21T08:02:24.345Z,1.69
2023-01-21T08:04:52.096Z,1.85
2023-01-21T08:07:19.339Z,1.83
2023-01-21T08:09:46.935Z,1.85
2023-01-21T08:12:14.156Z,1.88
2023-01-21T08:14:41.703Z,1.97
2023-01-21T08:17:09.032Z,1.94
2023-01-21T08:19:36.541Z,1.92
2023-01-21T08:22:03.835Z,1.94
2023-01-21T08:24:31.422Z,1.92
2023-01-21T08:27:00.329Z,1.80
2023-01-21T08:29:28.149Z,1.88
2023-01-21T08:31:55.535Z,1.89
2023-01-21T08:34:23.313Z,1.83
2023-01-21T08:36:50.591Z,1.90
2023-01-21T08:39:18.150Z,1.90
2023-01-21T08:41:46.057Z,1.85
2023-01-21T08:44:13.709Z,1.89
2023-01-21T08:46:40.988Z,1.84
2023-01-21T08:49:08.690Z,1.85
2023-01-21T08:51:36.012Z,1.83
2023-01-21T08:54:08.273Z,1.75
2023-01-21T08:56:35.913Z,1.94
2023-01-21T08:59:03.529Z,1.97
2023-01-21T09:01:30.837Z,1.93
2023-01-21T09:04:00.544Z,1.98
2023-01-21T09:06:29.797Z,1.93
2023-01-21T09:08:58.226Z,2.00
2023-01-21T09:11:27.070Z,2.07
2023-01-21T09:13:54.709Z,1.98
2023-01-21T09:16:23.253Z,2.10
2023-01-21T09:18:51.108Z,2.09
2023-01-21T09:21:18.339Z,2.13
2023-01-21T09:23:46.090Z,2.03
2023-01-21T09:26:20.253Z,1.97
2023-01-21T09:29:02.124Z,1.99
2023-01-21T09:31:30.811Z,2.03
2023-01-21T09:34:04.325Z,2.03
2023-01-21T09:36:34.070Z,2.07
2023-01-21T09:39:02.199Z,2.05
2023-01-21T09:41:52.658Z,1.96
2023-01-21T09:44:28.341Z,2.15
2023-01-21T09:46:55.604Z,2.18
2023-01-21T09:49:26.051Z,2.09
2023-01-21T09:52:09.178Z,2.15
2023-01-21T09:54:38.294Z,2.12
2023-01-21T09:57:05.436Z,2.14
2023-01-21T09:59:40.123Z,2.09
2023-01-21T10:02:21.817Z,2.07
2023-01-21T10:05:06.770Z,2.13
2023-01-21T10:07:47.240Z,2.13
2023-01-21T10:10:28.448Z,2.11
2023-01-21T10:13:15.558Z,2.09
2023-01-21T10:16:13.441Z,2.15
2023-01-21T10:18:45.056Z,2.06
2023-01-21T10:21:34.617Z,2.07
2023-01-21T10:24:15.038Z,2.04
2023-01-21T10:26:47.179Z,2.12
2023-01-21T10:29:18.030Z,2.18
2023-01-21T10:32:13.691Z,2.12
2023-01-21T10:34:52.217Z,2.17
2023-01-21T10:37:48.340Z,2.29
2023-01-21T10:40:42.880Z,2.25
2023-01-21T10:43:10.522Z,2.17
2023-01-21T10:46:01.203Z,2.28
2023-01-21T10:48:41.158Z,2.19
2023-01-21T10:51:17.000Z,2.29
2023-01-21T10:53:52.127Z,2.28
2023-01-21T10:56:34.984Z,2.25
2023-01-21T10:59:10.891Z,2.37
2023-01-21T11:01:41.748Z,2.29
2023-01-21T11:04:22.205Z,2.28
2023-01-21T11:06:59.599Z,2.22
2023-01-21T11:09:31.734Z,2.17
2023-01-21T11:12:00.967Z,2.27
2023-01-21T11:14:28.648Z,2.18
2023-01-21T11:16:56.532Z,2.05
2023-01-21T11:19:27.130Z,2.11
2023-01-21T11:22:22.165Z,2.04
2023-01-21T11:24:51.834Z,2.15
2023-01-21T11:27:23.634Z,2.11
2023-01-21T11:29:51.212Z,2.01
2023-01-21T11:32:22.891Z,2.06
2023-01-21T11:34:51.712Z,2.02
2023-01-21T11:37:21.849Z,2.09
2023-01-21T11:40:03.772Z,2.03
2023-01-21T11:42:31.105Z,2.07
2023-01-21T11:45:05.289Z,2.04
2023-01-21T11:47:39.772Z,2.04
2023-01-21T11:50:28.115Z,2.08
2023-01-21T11:53:11.506Z,2.07
2023-01-21T11:55:46.847Z,2.10
2023-01-21T11:58:28.723Z,2.21
2023-01-21T12:00:57.966Z,2.08
2023-01-21T12:03:29.574Z,2.11
2023-01-21T12:05:57.113Z,2.14
2023-01-21T12:08:27.066Z,2.12
2023-01-21T12:10:57.901Z,2.13
2023-01-21T12:13:46.897Z,2.14
2023-01-21T12:16:14.416Z,2.12
2023-01-21T12:19:03.056Z,2.18
2023-01-21T12:21:33.323Z,2.19
2023-01-21T12:24:06.231Z,2.10
2023-01-21T12:26:49.342Z,2.22
2023-01-21T12:29:25.561Z,2.22
2023-01-21T12:32:11.036Z,2.13
2023-01-21T12:34:38.499Z,2.21
2023-01-21T12:37:18.114Z,2.15
2023-01-21T12:39:49.021Z,2.14
2023-01-21T12:42:27.435Z,2.21
2023-01-21T12:45:00.325Z,2.25
2023-01-21T12:47:34.951Z,2.19
2023-01-21T12:50:02.160Z,2.22
2023-01-21T12:53:17.518Z,2.27
2023-01-21T12:56:09.306Z,2.31
2023-01-21T12:58:42.964Z,2.20
2023-01-21T13:01:16.118Z,2.23
2023-01-21T13:04:04.027Z,2.24
2023-01-21T13:06:53.203Z,2.30
2023-01-21T13:09:37.720Z,2.20
2023-01-21T13:12:20.569Z,2.25
2023-01-21T13:15:17.190Z,2.34
2023-01-21T13:17:51.040Z,2.21
2023-01-21T13:20:21.258Z,2.26
2023-01-21T13:23:16.222Z,2.23
2023-01-21T13:25:50.862Z,2.26
2023-01-21T13:28:32.084Z,2.29
2023-01-21T13:30:59.767Z,2.21
2023-01-21T13:33:39.147Z,2.18
2023-01-21T13:36:36.452Z,2.12
2023-01-21T13:39:15.981Z,1.99
2023-01-21T13:42:02.022Z,1.97
2023-01-21T13:44:41.687Z,1.92
2023-01-21T13:47:18.470Z,1.90
2023-01-21T13:50:08.849Z,1.80
2023-01-21T13:53:04.400Z,1.81
2023-01-21T13:55:38.512Z,1.69
2023-01-21T13:58:13.311Z,1.68
2023-01-21T14:01:05.936Z,1.63
2023-01-21T14:03:45.124Z,1.48
2023-01-21T14:06:55.710Z,1.31
2023-01-21T14:09:28.816Z,1.25
2023-01-21T14:12:05.920Z,1.15
2023-01-21T14:14:52.382Z,1.18
2023-01-21T14:17:42.621Z,1.08
2023-01-21T14:20:16.137Z,0.84
2023-01-21T14:23:12.723Z,0.82
2023-01-21T14:25:55.394Z,0.76
2023-01-21T14:28:33.260Z,0.84
2023-01-21T14:31:13.876Z,0.75
2023-01-21T14:33:46.859Z,1.23
2023-01-21T14:36:35.490Z,0.94
2023-01-21T14:39:15.791Z,0.85
2023-01-21T14:42:05.140Z,0.78
2023-01-21T14:44:38.555Z,0.79
2023-01-21T14:47:16.209Z,0.82
2023-01-21T14:49:48.925Z,0.73
2023-01-21T14:52:27.166Z,0.60
2023-01-21T14:54:54.667Z,0.50
2023-01-21T14:57:38.685Z,0.48
2023-01-21T15:00:22.399Z,0.38
2023-01-21T15:03:06.200Z,0.32
2023-01-21T15:05:38.355Z,0.32
2023-01-21T15:08:21.621Z,0.31
2023-01-21T15:10:58.045Z,0.28
2023-01-21T15:13:39.141Z,0.19
2023-01-21T15:16:26.810Z,0.35
2023-01-21T15:19:13.042Z,0.30
2023-01-21T15:21:46.291Z,0.35
2023-01-21T15:24:30.523Z,0.37
2023-01-21T15:27:20.600Z,0.17
2023-01-21T15:29:54.636Z,0.11
2023-01-21T15:32:34.899Z,0.18
2023-01-21T15:35:24.416Z,0.26
2023-01-21T15:37:59.417Z,0.21
2023-01-21T15:40:36.167Z,0.29
2023-01-21T15:43:12.559Z,0.22
2023-01-21T15:46:01.673Z,0.31
2023-01-21T15:48:42.235Z,0.36
2023-01-21T15:51:16.288Z,0.30
2023-01-21T15:54:05.355Z,0.35
2023-01-21T15:57:01.333Z,0.31
2023-01-21T15:59:56.480Z,0.38
2023-01-21T16:02:36.045Z,0.44
2023-01-21T16:05:12.315Z,0.45
2023-01-21T16:08:07.925Z,0.29
2023-01-21T16:10:44.123Z,0.34
2023-01-21T16:13:40.480Z,0.38
2023-01-21T16:16:46.666Z,0.42
2023-01-21T16:19:21.733Z,0.46
2023-01-21T16:21:55.029Z,0.50
2023-01-21T16:24:27.179Z,0.62
2023-01-21T16:26:54.554Z,0.61
2023-01-21T16:29:22.097Z,0.72
2023-01-21T16:31:52.211Z,0.70
2023-01-21T16:34:41.894Z,0.78
2023-01-21T16:37:18.499Z,0.80
2023-01-21T16:39:47.005Z,0.67
2023-01-21T16:42:29.246Z,0.74
2023-01-21T16:44:58.213Z,0.67
2023-01-21T16:47:30.379Z,0.68
2023-01-21T16:49:58.073Z,0.62
2023-01-21T16:52:26.638Z,0.65
2023-01-21T16:54:55.442Z,0.62
2023-01-21T16:57:31.819Z,0.59
2023-01-21T17:00:02.631Z,0.53
2023-01-21T17:02:34.419Z,0.30
2023-01-21T17:05:05.206Z,0.32
2023-01-21T17:07:36.631Z,0.33
2023-01-21T17:10:21.652Z,0.45
2023-01-21T17:12:54.033Z,0.49
2023-01-21T17:15:39.281Z,0.35
2023-01-21T17:18:17.870Z,0.45
2023-01-21T17:20:59.562Z,0.46
2023-01-21T17:23:55.652Z,0.61
2023-01-21T17:26:31.613Z,0.64
2023-01-21T17:29:16.744Z,0.60
2023-01-21T17:31:45.155Z,0.63
2023-01-21T17:34:15.547Z,0.65
2023-01-21T17:36:50.477Z,0.59
2023-01-21T17:39:49.300Z,0.65
2023-01-21T17:42:19.669Z,0.60
2023-01-21T17:44:50.461Z,0.68
2023-01-21T17:47:26.671Z,0.74
2023-01-21T17:50:24.021Z,0.78
2023-01-21T17:53:01.608Z,0.73
2023-01-21T17:55:33.289Z,0.76
2023-01-21T17:58:04.701Z,0.87
2023-01-21T18:00:43.888Z,0.85
2023-01-21T18:03:12.354Z,0.89
2023-01-21T18:05:41.795Z,0.92
2023-01-21T18:08:15.111Z,0.92
2023-01-21T18:10:43.665Z,0.94
2023-01-21T18:13:16.173Z,0.99
2023-01-21T18:15:44.387Z,0.99
2023-01-21T18:18:25.706Z,1.12
2023-01-21T18:20:53.228Z,1.05
2023-01-21T18:23:21.018Z,1.08
2023-01-21T18:25:52.441Z,1.03
2023-01-21T18:28:25.860Z,0.98
2023-01-21T18:30:57.800Z,1.01
2023-01-21T18:33:25.965Z,1.02
2023-01-21T18:35:53.822Z,1.04
2023-01-21T18:38:27.641Z,1.00
2023-01-21T18:40:56.030Z,1.01
2023-01-21T18:43:24.986Z,1.00
2023-01-21T18:45:54.297Z,1.04
2023-01-21T18:48:28.294Z,1.06
2023-01-21T18:50:55.958Z,1.04
2023-01-21T18:53:23.525Z,1.09
2023-01-21T18:55:54.018Z,1.22
2023-01-21T18:58:21.914Z,1.21
2023-01-21T19:00:49.526Z,1.10
2023-01-21T19:03:17.527Z,1.18
2023-01-21T19:05:47.748Z,1.19
2023-01-21T19:08:22.764Z,1.21
2023-01-21T19:10:50.656Z,1.22
2023-01-21T19:13:18.174Z,1.18
2023-01-21T19:15:47.144Z,1.26
2023-01-21T19:18:16.552Z,1.30
2023-01-21T19:20:44.094Z,1.22
2023-01-21T19:23:17.366Z,1.14
2023-01-21T19:25:56.129Z,1.12
2023-01-21T19:28:25.390Z,1.15
2023-01-21T19:30:55.594Z,1.20
2023-01-21T19:33:23.932Z,1.13
2023-01-21T19:35:59.453Z,1.12
2023-01-21T19:38:27.472Z,1.11
2023-01-21T19:40:55.808Z,1.21
2023-01-21T19:43:23.581Z,1.19
2023-01-21T19:45:52.247Z,1.14
2023-01-21T19:48:21.778Z,1.13
2023-01-21T19:50:49.530Z,1.19
2023-01-21T19:53:21.207Z,1.24
2023-01-21T19:55:49.814Z,1.12
2023-01-21T19:58:20.078Z,1.09
2023-01-21T20:00:50.271Z,1.16
2023-01-21T20:03:19.224Z,1.07
2023-01-21T20:05:49.875Z,1.13
2023-01-21T20:08:26.430Z,1.09
2023-01-21T20:10:53.806Z,1.16
2023-01-21T20:13:21.704Z,1.02
2023-01-21T20:15:51.513Z,1.14
2023-01-21T20:18:25.583Z,1.12
2023-01-21T20:20:54.037Z,1.08
2023-01-21T20:23:23.189Z,0.95
2023-01-21T20:25:55.179Z,1.03
2023-01-21T20:28:22.733Z,0.97
2023-01-21T20:30:53.156Z,1.05
2023-01-21T20:33:23.211Z,1.03
2023-01-21T20:35:55.616Z,1.04
2023-01-21T20:38:30.229Z,0.95
2023-01-21T20:40:58.996Z,1.00
2023-01-21T20:43:27.814Z,0.93
2023-01-21T20:45:59.600Z,1.03
2023-01-21T20:48:35.022Z,1.09
2023-01-21T20:51:03.304Z,1.04
2023-01-21T20:53:30.937Z,1.07
2023-01-21T20:56:00.852Z,1.07
2023-01-21T20:58:28.756Z,1.02
2023-01-21T21:00:56.093Z,1.03
2023-01-21T21:03:23.886Z,1.17
2023-01-21T21:05:51.150Z,1.00
2023-01-21T21:08:21.617Z,1.09
2023-01-21T21:10:50.951Z,1.09
2023-01-21T21:13:18.599Z,1.08
2023-01-21T21:15:46.708Z,1.03
2023-01-21T21:18:14.885Z,0.98
2023-01-21T21:20:42.151Z,0.99
2023-01-21T21:23:16.021Z,0.95
2023-01-21T21:25:47.896Z,0.96
2023-01-21T21:28:17.664Z,0.95
2023-01-21T21:30:45.286Z,1.01
2023-01-21T21:33:19.627Z,1.00
2023-01-21T21:35:47.412Z,1.06
2023-01-21T21:38:17.948Z,0.89
2023-01-21T21:40:47.391Z,0.92
2023-01-21T21:43:35.904Z,0.88
2023-01-21T21:46:30.601Z,0.93
2023-01-21T21:48:58.161Z,0.91
2023-01-21T21:51:25.626Z,0.89
2023-01-21T21:53:53.192Z,0.86
2023-01-21T21:56:22.738Z,0.81
2023-01-21T21:58:51.369Z,0.82
2023-01-21T22:01:20.642Z,0.91
2023-01-21T22:03:49.031Z,0.86
2023-01-21T22:06:18.772Z,0.85
2023-01-21T22:08:46.936Z,0.82
2023-01-21T22:11:19.595Z,0.87
2023-01-21T22:13:50.226Z,0.89
2023-01-21T22:16:24.105Z,0.89
2023-01-21T22:18:52.629Z,0.85
2023-01-21T22:21:25.779Z,0.84
2023-01-21T22:23:54.678Z,0.85
2023-01-21T22:26:24.017Z,0.83
2023-01-21T22:28:51.948Z,0.88
2023-01-21T22:31:22.268Z,0.96
2023-01-21T22:33:50.212Z,0.98
2023-01-21T22:36:19.969Z,0.78
2023-01-21T22:38:48.024Z,0.87
2023-01-21T22:41:17.702Z,0.86
2023-01-21T22:43:48.160Z,0.79
2023-01-21T22:46:24.300Z,0.87
2023-01-21T22:48:54.047Z,0.75
2023-01-21T22:51:23.117Z,0.75
2023-01-21T22:53:51.577Z,0.74
2023-01-21T22:56:25.377Z,0.86
2023-01-21T22:58:59.438Z,0.76
2023-01-21T23:01:31.345Z,0.84
2023-01-21T23:03:59.863Z,0.77
2023-01-21T23:06:27.402Z,0.77
2023-01-21T23:08:55.728Z,0.83
2023-01-21T23:11:23.229Z,0.78
2023-01-21T23:13:53.278Z,0.74
2023-01-21T23:16:21.233Z,0.67
2023-01-21T23:18:49.402Z,0.75
2023-01-21T23:21:21.383Z,0.76
2023-01-21T23:23:49.376Z,0.74
2023-01-21T23:26:19.291Z,0.64
2023-01-21T23:28:47.456Z,0.82
2023-01-21T23:31:17.430Z,0.72
2023-01-21T23:33:49.444Z,0.70
2023-01-21T23:36:17.029Z,0.69
2023-01-21T23:38:44.998Z,0.63
2023-01-21T23:41:14.472Z,0.73
2023-01-21T23:43:41.983Z,0.73
2023-01-21T23:46:12.957Z,0.75
2023-01-21T23:48:40.531Z,0.66
2023-01-21T23:51:11.895Z,0.79
2023-01-21T23:53:39.582Z,0.73
2023-01-21T23:56:10.904Z,0.69
2023-01-21T23:58:38.475Z,0.71
